sensor_id;sensor_type;location;lat;lon;timestamp;P1;durP1;ratioP1;P2;durP2;ratioP2
50976;SDS011;36992;48.200;12.418;2023-04-29T00:02:07;0.47;;;0.20;;
50976;SDS011;36992;48.200;12.418;2023-04-29T00:04:34;0.30;;;0.10;;
50976;SDS011;36992;48.200;12.418;2023-04-29T00:07:00;0.45;;;0.20;;
50976;SDS011;36992;48.200;12.418;2023-04-29T00:09:27;1.90;;;0.20;;
50976;SDS011;36992;48.200;12.418;2023-04-29T00:11:53;0.47;;;0.20;;
50976;SDS011;36992;48.200;12.418;2023-04-29T00:14:20;0.43;;;0.13;;
50976;SDS011;36992;48.200;12.418;2023-04-29T00:16:46;0.32;;;0.20;;
50976;SDS011;36992;48.200;12.418;2023-04-29T00:19:14;0.20;;;0.10;;
50976;SDS011;36992;48.200;12.418;2023-04-29T00:21:42;0.40;;;0.10;;
50976;SDS011;36992;48.200;12.418;2023-04-29T00:24:08;0.20;;;0.00;;
50976;SDS011;36992;48.200;12.418;2023-04-29T00:26:35;0.47;;;0.20;;
50976;SDS011;36992;48.200;12.418;2023-04-29T00:29:01;0.57;;;0.10;;
50976;SDS011;36992;48.200;12.418;2023-04-29T00:31:28;0.17;;;0.03;;
50976;SDS011;36992;48.200;12.418;2023-04-29T00:33:56;0.30;;;0.10;;
50976;SDS011;36992;48.200;12.418;2023-04-29T00:36:24;0.30;;;0.10;;
50976;SDS011;36992;48.200;12.418;2023-04-29T00:38:51;0.30;;;0.10;;
50976;SDS011;36992;48.200;12.418;2023-04-29T00:41:18;0.77;;;0.10;;
50976;SDS011;36992;48.200;12.418;2023-04-29T00:43:44;0.17;;;0.05;;
50976;SDS011;36992;48.200;12.418;2023-04-29T00:46:11;0.28;;;0.10;;
50976;SDS011;36992;48.200;12.418;2023-04-29T00:48:37;0.20;;;0.10;;
50976;SDS011;36992;48.200;12.418;2023-04-29T00:51:05;0.50;;;0.20;;
50976;SDS011;36992;48.200;12.418;2023-04-29T00:53:33;0.17;;;0.10;;
50976;SDS011;36992;48.200;12.418;2023-04-29T00:56:00;0.10;;;0.00;;
50976;SDS011;36992;48.200;12.418;2023-04-29T00:58:28;0.65;;;0.10;;
50976;SDS011;36992;48.200;12.418;2023-04-29T01:00:57;0.08;;;0.00;;
50976;SDS011;36992;48.200;12.418;2023-04-29T01:03:24;1.33;;;0.00;;
50976;SDS011;36992;48.200;12.418;2023-04-29T01:08:41;0.28;;;0.00;;
50976;SDS011;36992;48.200;12.418;2023-04-29T01:13:42;0.10;;;0.00;;
50976;SDS011;36992;48.200;12.418;2023-04-29T01:16:16;0.77;;;0.10;;
50976;SDS011;36992;48.200;12.418;2023-04-29T01:18:49;0.20;;;0.10;;
50976;SDS011;36992;48.200;12.418;2023-04-29T01:21:19;0.20;;;0.00;;
50976;SDS011;36992;48.200;12.418;2023-04-29T01:23:48;0.40;;;0.05;;
50976;SDS011;36992;48.200;12.418;2023-04-29T01:26:19;0.10;;;0.00;;
50976;SDS011;36992;48.200;12.418;2023-04-29T01:28:48;0.15;;;0.10;;
50976;SDS011;36992;48.200;12.418;2023-04-29T01:31:21;0.10;;;0.00;;
50976;SDS011;36992;48.200;12.418;2023-04-29T01:33:55;0.52;;;0.00;;
50976;SDS011;36992;48.200;12.418;2023-04-29T01:36:33;0.10;;;0.00;;
50976;SDS011;36992;48.200;12.418;2023-04-29T01:39:12;0.30;;;0.00;;
50976;SDS011;36992;48.200;12.418;2023-04-29T01:41:42;0.20;;;0.00;;
50976;SDS011;36992;48.200;12.418;2023-04-29T01:44:12;0.20;;;0.03;;
50976;SDS011;36992;48.200;12.418;2023-04-29T01:46:42;0.17;;;0.10;;
50976;SDS011;36992;48.200;12.418;2023-04-29T01:49:09;0.10;;;0.00;;
50976;SDS011;36992;48.200;12.418;2023-04-29T01:51:35;1.15;;;0.00;;
50976;SDS011;36992;48.200;12.418;2023-04-29T01:54:02;0.00;;;0.00;;
50976;SDS011;36992;48.200;12.418;2023-04-29T01:56:30;0.15;;;0.05;;
50976;SDS011;36992;48.200;12.418;2023-04-29T01:58:57;0.08;;;0.00;;
50976;SDS011;36992;48.200;12.418;2023-04-29T02:01:23;0.10;;;0.00;;
50976;SDS011;36992;48.200;12.418;2023-04-29T02:03:50;0.47;;;0.10;;
50976;SDS011;36992;48.200;12.418;2023-04-29T02:06:16;1.58;;;0.10;;
50976;SDS011;36992;48.200;12.418;2023-04-29T02:08:42;0.03;;;0.00;;
50976;SDS011;36992;48.200;12.418;2023-04-29T02:11:09;0.10;;;0.00;;
50976;SDS011;36992;48.200;12.418;2023-04-29T02:13:37;0.55;;;0.10;;
50976;SDS011;36992;48.200;12.418;2023-04-29T02:16:07;0.20;;;0.00;;
50976;SDS011;36992;48.200;12.418;2023-04-29T02:18:33;0.52;;;0.00;;
50976;SDS011;36992;48.200;12.418;2023-04-29T02:21:00;0.75;;;0.08;;
50976;SDS011;36992;48.200;12.418;2023-04-29T02:23:26;0.13;;;0.00;;
50976;SDS011;36992;48.200;12.418;2023-04-29T02:25:53;1.60;;;0.10;;
50976;SDS011;36992;48.200;12.418;2023-04-29T02:28:20;0.22;;;0.05;;
50976;SDS011;36992;48.200;12.418;2023-04-29T02:30:48;0.60;;;0.10;;
50976;SDS011;36992;48.200;12.418;2023-04-29T02:33:15;0.40;;;0.10;;
50976;SDS011;36992;48.200;12.418;2023-04-29T02:35:42;0.22;;;0.10;;
50976;SDS011;36992;48.200;12.418;2023-04-29T02:38:09;0.20;;;0.10;;
50976;SDS011;36992;48.200;12.418;2023-04-29T02:40:39;0.10;;;0.00;;
50976;SDS011;36992;48.200;12.418;2023-04-29T02:43:06;0.38;;;0.05;;
50976;SDS011;36992;48.200;12.418;2023-04-29T02:45:33;0.20;;;0.10;;
50976;SDS011;36992;48.200;12.418;2023-04-29T02:48:01;0.32;;;0.10;;
50976;SDS011;36992;48.200;12.418;2023-04-29T02:50:28;0.20;;;0.10;;
50976;SDS011;36992;48.200;12.418;2023-04-29T02:52:55;0.10;;;0.00;;
50976;SDS011;36992;48.200;12.418;2023-04-29T02:55:22;0.10;;;0.00;;
50976;SDS011;36992;48.200;12.418;2023-04-29T02:57:48;0.10;;;0.00;;
50976;SDS011;36992;48.200;12.418;2023-04-29T03:00:15;0.25;;;0.10;;
50976;SDS011;36992;48.200;12.418;2023-04-29T03:02:41;0.03;;;0.00;;
50976;SDS011;36992;48.200;12.418;2023-04-29T03:05:09;0.20;;;0.10;;
50976;SDS011;36992;48.200;12.418;2023-04-29T03:07:36;0.30;;;0.10;;
50976;SDS011;36992;48.200;12.418;2023-04-29T03:10:02;0.10;;;0.00;;
50976;SDS011;36992;48.200;12.418;2023-04-29T03:12:29;0.10;;;0.00;;
50976;SDS011;36992;48.200;12.418;2023-04-29T03:14:56;0.30;;;0.00;;
50976;SDS011;36992;48.200;12.418;2023-04-29T03:17:22;0.20;;;0.00;;
50976;SDS011;36992;48.200;12.418;2023-04-29T03:19:49;0.20;;;0.00;;
50976;SDS011;36992;48.200;12.418;2023-04-29T03:22:18;0.60;;;0.10;;
50976;SDS011;36992;48.200;12.418;2023-04-29T03:24:45;0.17;;;0.00;;
50976;SDS011;36992;48.200;12.418;2023-04-29T03:27:11;0.68;;;0.50;;
50976;SDS011;36992;48.200;12.418;2023-04-29T03:29:38;0.25;;;0.05;;
50976;SDS011;36992;48.200;12.418;2023-04-29T03:32:04;0.68;;;0.20;;
50976;SDS011;36992;48.200;12.418;2023-04-29T03:34:31;0.20;;;0.10;;
50976;SDS011;36992;48.200;12.418;2023-04-29T03:36:58;0.55;;;0.10;;
50976;SDS011;36992;48.200;12.418;2023-04-29T03:39:26;0.25;;;0.10;;
50976;SDS011;36992;48.200;12.418;2023-04-29T03:41:56;0.35;;;0.08;;
50976;SDS011;36992;48.200;12.418;2023-04-29T03:44:23;0.10;;;0.00;;
50976;SDS011;36992;48.200;12.418;2023-04-29T03:46:50;0.15;;;0.10;;
50976;SDS011;36992;48.200;12.418;2023-04-29T03:49:16;0.03;;;0.00;;
50976;SDS011;36992;48.200;12.418;2023-04-29T03:51:43;0.10;;;0.00;;
50976;SDS011;36992;48.200;12.418;2023-04-29T03:54:10;0.30;;;0.10;;
50976;SDS011;36992;48.200;12.418;2023-04-29T03:56:38;0.35;;;0.10;;
50976;SDS011;36992;48.200;12.418;2023-04-29T03:59:05;0.17;;;0.10;;
50976;SDS011;36992;48.200;12.418;2023-04-29T04:01:31;0.40;;;0.10;;
50976;SDS011;36992;48.200;12.418;2023-04-29T04:03:58;0.32;;;0.10;;
50976;SDS011;36992;48.200;12.418;2023-04-29T04:06:25;0.25;;;0.00;;
50976;SDS011;36992;48.200;12.418;2023-04-29T04:08:51;0.28;;;0.00;;
50976;SDS011;36992;48.200;12.418;2023-04-29T04:11:17;0.20;;;0.00;;
50976;SDS011;36992;48.200;12.418;2023-04-29T04:13:45;0.35;;;0.08;;
50976;SDS011;36992;48.200;12.418;2023-04-29T04:16:13;0.93;;;0.10;;
50976;SDS011;36992;48.200;12.418;2023-04-29T04:18:40;0.20;;;0.10;;
50976;SDS011;36992;48.200;12.418;2023-04-29T04:21:07;1.95;;;0.10;;
50976;SDS011;36992;48.200;12.418;2023-04-29T04:23:35;1.00;;;0.05;;
50976;SDS011;36992;48.200;12.418;2023-04-29T04:26:04;0.30;;;0.10;;
50976;SDS011;36992;48.200;12.418;2023-04-29T04:28:30;0.25;;;0.10;;
50976;SDS011;36992;48.200;12.418;2023-04-29T04:30:58;0.40;;;0.10;;
50976;SDS011;36992;48.200;12.418;2023-04-29T04:33:25;0.15;;;0.08;;
50976;SDS011;36992;48.200;12.418;2023-04-29T04:35:51;1.58;;;0.10;;
50976;SDS011;36992;48.200;12.418;2023-04-29T04:38:18;0.20;;;0.10;;
50976;SDS011;36992;48.200;12.418;2023-04-29T04:40:44;0.40;;;0.10;;
50976;SDS011;36992;48.200;12.418;2023-04-29T04:43:11;1.55;;;0.10;;
50976;SDS011;36992;48.200;12.418;2023-04-29T04:45:37;0.77;;;0.10;;
50976;SDS011;36992;48.200;12.418;2023-04-29T04:48:05;0.80;;;0.10;;
50976;SDS011;36992;48.200;12.418;2023-04-29T04:50:32;0.52;;;0.10;;
50976;SDS011;36992;48.200;12.418;2023-04-29T04:52:58;0.20;;;0.03;;
50976;SDS011;36992;48.200;12.418;2023-04-29T04:55:25;0.10;;;0.00;;
50976;SDS011;36992;48.200;12.418;2023-04-29T04:57:51;0.30;;;0.10;;
50976;SDS011;36992;48.200;12.418;2023-04-29T05:00:17;0.25;;;0.08;;
50976;SDS011;36992;48.200;12.418;2023-04-29T05:02:44;1.35;;;0.10;;
50976;SDS011;36992;48.200;12.418;2023-04-29T05:05:12;0.75;;;0.10;;
50976;SDS011;36992;48.200;12.418;2023-04-29T05:07:38;2.15;;;0.10;;
50976;SDS011;36992;48.200;12.418;2023-04-29T05:10:05;0.30;;;0.10;;
50976;SDS011;36992;48.200;12.418;2023-04-29T05:12:32;0.30;;;0.10;;
50976;SDS011;36992;48.200;12.418;2023-04-29T05:14:59;0.20;;;0.10;;
50976;SDS011;36992;48.200;12.418;2023-04-29T05:17:26;0.50;;;0.10;;
50976;SDS011;36992;48.200;12.418;2023-04-29T05:19:52;0.45;;;0.17;;
50976;SDS011;36992;48.200;12.418;2023-04-29T05:22:20;0.10;;;0.00;;
50976;SDS011;36992;48.200;12.418;2023-04-29T05:24:46;0.82;;;0.10;;
50976;SDS011;36992;48.200;12.418;2023-04-29T05:27:13;0.10;;;0.00;;
50976;SDS011;36992;48.200;12.418;2023-04-29T05:29:39;0.30;;;0.10;;
50976;SDS011;36992;48.200;12.418;2023-04-29T05:32:06;0.20;;;0.10;;
50976;SDS011;36992;48.200;12.418;2023-04-29T05:34:32;0.52;;;0.17;;
50976;SDS011;36992;48.200;12.418;2023-04-29T05:36:59;0.20;;;0.00;;
50976;SDS011;36992;48.200;12.418;2023-04-29T05:39:27;0.60;;;0.20;;
50976;SDS011;36992;48.200;12.418;2023-04-29T05:41:54;0.85;;;0.10;;
50976;SDS011;36992;48.200;12.418;2023-04-29T05:44:21;0.38;;;0.10;;
50976;SDS011;36992;48.200;12.418;2023-04-29T05:46:47;0.30;;;0.10;;
50976;SDS011;36992;48.200;12.418;2023-04-29T05:49:15;0.30;;;0.10;;
50976;SDS011;36992;48.200;12.418;2023-04-29T05:51:42;0.45;;;0.10;;
50976;SDS011;36992;48.200;12.418;2023-04-29T05:54:08;0.30;;;0.10;;
50976;SDS011;36992;48.200;12.418;2023-04-29T05:56:36;0.63;;;0.10;;
50976;SDS011;36992;48.200;12.418;2023-04-29T05:59:02;0.15;;;0.08;;
50976;SDS011;36992;48.200;12.418;2023-04-29T06:01:29;0.20;;;0.10;;
50976;SDS011;36992;48.200;12.418;2023-04-29T06:03:56;0.25;;;0.10;;
50976;SDS011;36992;48.200;12.418;2023-04-29T06:06:23;0.77;;;0.17;;
50976;SDS011;36992;48.200;12.418;2023-04-29T06:08:49;0.30;;;0.10;;
50976;SDS011;36992;48.200;12.418;2023-04-29T06:11:17;0.50;;;0.10;;
50976;SDS011;36992;48.200;12.418;2023-04-29T06:13:44;0.80;;;0.28;;
50976;SDS011;36992;48.200;12.418;2023-04-29T06:16:11;0.35;;;0.10;;
50976;SDS011;36992;48.200;12.418;2023-04-29T06:18:37;0.40;;;0.10;;
50976;SDS011;36992;48.200;12.418;2023-04-29T06:21:05;0.10;;;0.03;;
50976;SDS011;36992;48.200;12.418;2023-04-29T06:23:31;0.30;;;0.10;;
50976;SDS011;36992;48.200;12.418;2023-04-29T06:25:58;0.68;;;0.10;;
50976;SDS011;36992;48.200;12.418;2023-04-29T06:28:24;1.00;;;0.20;;
50976;SDS011;36992;48.200;12.418;2023-04-29T06:30:53;0.45;;;0.13;;
50976;SDS011;36992;48.200;12.418;2023-04-29T06:33:19;1.25;;;0.20;;
50976;SDS011;36992;48.200;12.418;2023-04-29T06:35:46;1.13;;;0.20;;
50976;SDS011;36992;48.200;12.418;2023-04-29T06:38:12;0.90;;;0.10;;
50976;SDS011;36992;48.200;12.418;2023-04-29T06:40:39;0.88;;;0.20;;
50976;SDS011;36992;48.200;12.418;2023-04-29T06:43:05;1.00;;;0.28;;
50976;SDS011;36992;48.200;12.418;2023-04-29T06:45:32;0.50;;;0.10;;
50976;SDS011;36992;48.200;12.418;2023-04-29T06:47:59;0.68;;;0.20;;
50976;SDS011;36992;48.200;12.418;2023-04-29T06:50:26;1.88;;;0.30;;
50976;SDS011;36992;48.200;12.418;2023-04-29T06:52:52;2.50;;;0.30;;
50976;SDS011;36992;48.200;12.418;2023-04-29T06:55:19;0.70;;;0.30;;
50976;SDS011;36992;48.200;12.418;2023-04-29T06:57:46;1.38;;;0.35;;
50976;SDS011;36992;48.200;12.418;2023-04-29T07:00:12;1.50;;;0.60;;
50976;SDS011;36992;48.200;12.418;2023-04-29T07:02:39;1.42;;;0.50;;
50976;SDS011;36992;48.200;12.418;2023-04-29T07:05:08;1.42;;;0.50;;
50976;SDS011;36992;48.200;12.418;2023-04-29T07:07:35;2.50;;;0.75;;
50976;SDS011;36992;48.200;12.418;2023-04-29T07:10:01;2.30;;;0.85;;
50976;SDS011;36992;48.200;12.418;2023-04-29T07:12:28;1.92;;;0.82;;
50976;SDS011;36992;48.200;12.418;2023-04-29T07:14:54;1.67;;;0.68;;
50976;SDS011;36992;48.200;12.418;2023-04-29T07:17:21;1.60;;;0.60;;
50976;SDS011;36992;48.200;12.418;2023-04-29T07:19:48;1.27;;;0.60;;
50976;SDS011;36992;48.200;12.418;2023-04-29T07:22:16;2.55;;;0.60;;
50976;SDS011;36992;48.200;12.418;2023-04-29T07:24:43;1.40;;;0.50;;
50976;SDS011;36992;48.200;12.418;2023-04-29T07:27:09;3.50;;;0.70;;
50976;SDS011;36992;48.200;12.418;2023-04-29T07:29:36;2.50;;;0.60;;
50976;SDS011;36992;48.200;12.418;2023-04-29T07:32:04;1.20;;;0.40;;
50976;SDS011;36992;48.200;12.418;2023-04-29T07:34:30;2.72;;;0.70;;
50976;SDS011;36992;48.200;12.418;2023-04-29T07:36:57;2.85;;;0.57;;
50976;SDS011;36992;48.200;12.418;2023-04-29T07:39:25;2.05;;;0.50;;
50976;SDS011;36992;48.200;12.418;2023-04-29T07:41:53;1.08;;;0.55;;
50976;SDS011;36992;48.200;12.418;2023-04-29T07:44:19;2.97;;;0.68;;
50976;SDS011;36992;48.200;12.418;2023-04-29T07:46:45;2.35;;;0.70;;
50976;SDS011;36992;48.200;12.418;2023-04-29T07:49:12;1.35;;;0.80;;
50976;SDS011;36992;48.200;12.418;2023-04-29T07:51:39;3.10;;;0.70;;
50976;SDS011;36992;48.200;12.418;2023-04-29T07:54:06;1.10;;;0.40;;
50976;SDS011;36992;48.200;12.418;2023-04-29T07:56:34;1.42;;;0.60;;
50976;SDS011;36992;48.200;12.418;2023-04-29T07:59:01;0.93;;;0.60;;
50976;SDS011;36992;48.200;12.418;2023-04-29T08:01:27;2.17;;;0.60;;
50976;SDS011;36992;48.200;12.418;2023-04-29T08:03:54;1.27;;;0.60;;
50976;SDS011;36992;48.200;12.418;2023-04-29T08:06:20;1.45;;;0.50;;
50976;SDS011;36992;48.200;12.418;2023-04-29T08:08:47;1.63;;;0.47;;
50976;SDS011;36992;48.200;12.418;2023-04-29T08:11:14;1.00;;;0.40;;
50976;SDS011;36992;48.200;12.418;2023-04-29T08:13:43;0.70;;;0.35;;
50976;SDS011;36992;48.200;12.418;2023-04-29T08:16:11;1.70;;;0.50;;
50976;SDS011;36992;48.200;12.418;2023-04-29T08:18:38;0.85;;;0.47;;
50976;SDS011;36992;48.200;12.418;2023-04-29T08:21:05;2.15;;;0.50;;
50976;SDS011;36992;48.200;12.418;2023-04-29T08:23:32;1.95;;;0.57;;
50976;SDS011;36992;48.200;12.418;2023-04-29T08:25:59;2.28;;;0.60;;
50976;SDS011;36992;48.200;12.418;2023-04-29T08:28:27;0.93;;;0.50;;
50976;SDS011;36992;48.200;12.418;2023-04-29T08:30:54;1.23;;;0.40;;
50976;SDS011;36992;48.200;12.418;2023-04-29T08:33:21;0.70;;;0.30;;
50976;SDS011;36992;48.200;12.418;2023-04-29T08:35:48;0.73;;;0.40;;
50976;SDS011;36992;48.200;12.418;2023-04-29T08:38:22;1.92;;;0.80;;
50976;SDS011;36992;48.200;12.418;2023-04-29T08:40:49;1.23;;;0.68;;
50976;SDS011;36992;48.200;12.418;2023-04-29T08:43:16;2.50;;;0.38;;
50976;SDS011;36992;48.200;12.418;2023-04-29T08:45:44;2.10;;;0.60;;
50976;SDS011;36992;48.200;12.418;2023-04-29T08:48:14;1.63;;;0.70;;
50976;SDS011;36992;48.200;12.418;2023-04-29T08:50:41;2.50;;;0.80;;
50976;SDS011;36992;48.200;12.418;2023-04-29T08:53:09;1.02;;;0.40;;
50976;SDS011;36992;48.200;12.418;2023-04-29T08:55:40;1.40;;;0.52;;
50976;SDS011;36992;48.200;12.418;2023-04-29T08:58:08;1.02;;;0.43;;
50976;SDS011;36992;48.200;12.418;2023-04-29T09:00:35;0.90;;;0.30;;
50976;SDS011;36992;48.200;12.418;2023-04-29T09:03:03;1.08;;;0.60;;
50976;SDS011;36992;48.200;12.418;2023-04-29T09:05:41;1.33;;;0.70;;
50976;SDS011;36992;48.200;12.418;2023-04-29T09:08:08;1.58;;;0.60;;
50976;SDS011;36992;48.200;12.418;2023-04-29T09:10:37;1.33;;;0.52;;
50976;SDS011;36992;48.200;12.418;2023-04-29T09:13:07;1.48;;;0.70;;
50976;SDS011;36992;48.200;12.418;2023-04-29T09:15:34;3.38;;;0.60;;
50976;SDS011;36992;48.200;12.418;2023-04-29T09:18:02;2.00;;;0.50;;
50976;SDS011;36992;48.200;12.418;2023-04-29T09:20:28;1.42;;;0.75;;
50976;SDS011;36992;48.200;12.418;2023-04-29T09:22:57;1.30;;;0.55;;
50976;SDS011;36992;48.200;12.418;2023-04-29T09:25:25;1.70;;;0.60;;
50976;SDS011;36992;48.200;12.418;2023-04-29T09:27:52;1.70;;;0.50;;
50976;SDS011;36992;48.200;12.418;2023-04-29T09:30:18;3.08;;;0.60;;
50976;SDS011;36992;48.200;12.418;2023-04-29T09:32:45;2.65;;;0.60;;
50976;SDS011;36992;48.200;12.418;2023-04-29T09:35:29;1.83;;;1.00;;
50976;SDS011;36992;48.200;12.418;2023-04-29T09:38:07;2.20;;;0.57;;
50976;SDS011;36992;48.200;12.418;2023-04-29T09:40:37;1.00;;;0.47;;
50976;SDS011;36992;48.200;12.418;2023-04-29T09:43:10;1.70;;;0.55;;
50976;SDS011;36992;48.200;12.418;2023-04-29T09:45:39;3.08;;;0.55;;
50976;SDS011;36992;48.200;12.418;2023-04-29T09:48:07;0.73;;;0.45;;
50976;SDS011;36992;48.200;12.418;2023-04-29T09:50:35;1.30;;;0.50;;
50976;SDS011;36992;48.200;12.418;2023-04-29T09:53:02;1.23;;;0.50;;
50976;SDS011;36992;48.200;12.418;2023-04-29T09:55:31;1.48;;;0.40;;
50976;SDS011;36992;48.200;12.418;2023-04-29T09:57:57;0.80;;;0.32;;
50976;SDS011;36992;48.200;12.418;2023-04-29T10:00:24;1.40;;;0.70;;
50976;SDS011;36992;48.200;12.418;2023-04-29T10:02:57;1.67;;;0.50;;
50976;SDS011;36992;48.200;12.418;2023-04-29T10:05:25;0.80;;;0.40;;
50976;SDS011;36992;48.200;12.418;2023-04-29T10:07:53;2.00;;;0.50;;
50976;SDS011;36992;48.200;12.418;2023-04-29T10:10:21;1.70;;;0.60;;
50976;SDS011;36992;48.200;12.418;2023-04-29T10:12:51;0.80;;;0.30;;
50976;SDS011;36992;48.200;12.418;2023-04-29T10:15:19;1.20;;;0.35;;
50976;SDS011;36992;48.200;12.418;2023-04-29T10:17:51;1.33;;;0.43;;
50976;SDS011;36992;48.200;12.418;2023-04-29T10:20:23;1.17;;;0.50;;
50976;SDS011;36992;48.200;12.418;2023-04-29T10:22:51;1.33;;;0.50;;
50976;SDS011;36992;48.200;12.418;2023-04-29T10:25:19;1.02;;;0.30;;
50976;SDS011;36992;48.200;12.418;2023-04-29T10:27:47;4.28;;;1.17;;
50976;SDS011;36992;48.200;12.418;2023-04-29T10:30:18;0.57;;;0.30;;
50976;SDS011;36992;48.200;12.418;2023-04-29T10:32:46;1.50;;;0.60;;
50976;SDS011;36992;48.200;12.418;2023-04-29T10:35:14;1.00;;;0.50;;
50976;SDS011;36992;48.200;12.418;2023-04-29T10:37:43;0.93;;;0.32;;
50976;SDS011;36992;48.200;12.418;2023-04-29T10:40:13;1.10;;;0.40;;
50976;SDS011;36992;48.200;12.418;2023-04-29T10:42:43;1.23;;;0.30;;
50976;SDS011;36992;48.200;12.418;2023-04-29T10:45:21;0.80;;;0.30;;
50976;SDS011;36992;48.200;12.418;2023-04-29T10:53:26;2.58;;;0.40;;
50976;SDS011;36992;48.200;12.418;2023-04-29T10:55:55;1.92;;;0.47;;
50976;SDS011;36992;48.200;12.418;2023-04-29T10:58:36;0.70;;;0.30;;
50976;SDS011;36992;48.200;12.418;2023-04-29T11:01:11;0.70;;;0.28;;
50976;SDS011;36992;48.200;12.418;2023-04-29T11:03:49;2.38;;;0.22;;
50976;SDS011;36992;48.200;12.418;2023-04-29T11:06:19;1.63;;;0.30;;
50976;SDS011;36992;48.200;12.418;2023-04-29T11:08:46;1.13;;;0.30;;
50976;SDS011;36992;48.200;12.418;2023-04-29T11:11:12;1.23;;;0.30;;
50976;SDS011;36992;48.200;12.418;2023-04-29T11:13:39;1.27;;;0.30;;
50976;SDS011;36992;48.200;12.418;2023-04-29T11:16:06;1.05;;;0.30;;
50976;SDS011;36992;48.200;12.418;2023-04-29T11:18:35;1.13;;;0.20;;
50976;SDS011;36992;48.200;12.418;2023-04-29T11:21:11;1.00;;;0.30;;
50976;SDS011;36992;48.200;12.418;2023-04-29T11:23:39;0.70;;;0.30;;
50976;SDS011;36992;48.200;12.418;2023-04-29T11:26:06;1.73;;;0.30;;
50976;SDS011;36992;48.200;12.418;2023-04-29T11:28:33;1.00;;;0.20;;
50976;SDS011;36992;48.200;12.418;2023-04-29T11:30:59;0.98;;;0.20;;
50976;SDS011;36992;48.200;12.418;2023-04-29T11:33:30;1.70;;;0.38;;
50976;SDS011;36992;48.200;12.418;2023-04-29T11:35:59;1.85;;;0.30;;
50976;SDS011;36992;48.200;12.418;2023-04-29T11:38:26;0.60;;;0.20;;
50976;SDS011;36992;48.200;12.418;2023-04-29T11:40:53;1.08;;;0.30;;
50976;SDS011;36992;48.200;12.418;2023-04-29T11:43:21;1.05;;;0.30;;
50976;SDS011;36992;48.200;12.418;2023-04-29T11:45:48;0.85;;;0.25;;
50976;SDS011;36992;48.200;12.418;2023-04-29T11:48:18;1.98;;;0.28;;
50976;SDS011;36992;48.200;12.418;2023-04-29T11:50:45;2.88;;;0.30;;
50976;SDS011;36992;48.200;12.418;2023-04-29T11:53:15;0.40;;;0.20;;
50976;SDS011;36992;48.200;12.418;2023-04-29T11:55:41;0.60;;;0.20;;
50976;SDS011;36992;48.200;12.418;2023-04-29T11:58:08;0.88;;;0.20;;
50976;SDS011;36992;48.200;12.418;2023-04-29T12:00:35;2.90;;;0.40;;
50976;SDS011;36992;48.200;12.418;2023-04-29T12:03:06;0.90;;;0.20;;
50976;SDS011;36992;48.200;12.418;2023-04-29T12:05:33;0.77;;;0.20;;
50976;SDS011;36992;48.200;12.418;2023-04-29T12:08:00;0.40;;;0.17;;
50976;SDS011;36992;48.200;12.418;2023-04-29T12:10:28;0.30;;;0.10;;
50976;SDS011;36992;48.200;12.418;2023-04-29T12:12:55;0.47;;;0.13;;
50976;SDS011;36992;48.200;12.418;2023-04-29T12:15:22;0.60;;;0.20;;
50976;SDS011;36992;48.200;12.418;2023-04-29T12:17:49;0.52;;;0.20;;
50976;SDS011;36992;48.200;12.418;2023-04-29T12:20:16;0.75;;;0.20;;
50976;SDS011;36992;48.200;12.418;2023-04-29T12:22:43;0.68;;;0.10;;
50976;SDS011;36992;48.200;12.418;2023-04-29T12:25:09;0.85;;;0.10;;
50976;SDS011;36992;48.200;12.418;2023-04-29T12:27:38;1.42;;;0.20;;
50976;SDS011;36992;48.200;12.418;2023-04-29T12:30:06;5.07;;;0.22;;
50976;SDS011;36992;48.200;12.418;2023-04-29T12:32:34;0.28;;;0.05;;
50976;SDS011;36992;48.200;12.418;2023-04-29T12:35:00;1.58;;;0.25;;
50976;SDS011;36992;48.200;12.418;2023-04-29T12:37:27;0.47;;;0.20;;
50976;SDS011;36992;48.200;12.418;2023-04-29T12:39:54;1.13;;;0.10;;
50976;SDS011;36992;48.200;12.418;2023-04-29T12:42:20;0.10;;;0.00;;
50976;SDS011;36992;48.200;12.418;2023-04-29T12:44:48;0.73;;;0.15;;
50976;SDS011;36992;48.200;12.418;2023-04-29T12:47:15;2.92;;;0.20;;
50976;SDS011;36992;48.200;12.418;2023-04-29T12:49:42;2.67;;;0.20;;
50976;SDS011;36992;48.200;12.418;2023-04-29T12:52:10;0.15;;;0.10;;
50976;SDS011;36992;48.200;12.418;2023-04-29T12:54:36;0.40;;;0.20;;
50976;SDS011;36992;48.200;12.418;2023-04-29T12:57:05;0.50;;;0.20;;
50976;SDS011;36992;48.200;12.418;2023-04-29T12:59:32;2.05;;;0.20;;
50976;SDS011;36992;48.200;12.418;2023-04-29T13:02:00;3.50;;;1.02;;
50976;SDS011;36992;48.200;12.418;2023-04-29T13:04:26;0.68;;;0.28;;
50976;SDS011;36992;48.200;12.418;2023-04-29T13:06:53;2.70;;;0.20;;
50976;SDS011;36992;48.200;12.418;2023-04-29T13:09:24;1.08;;;0.40;;
50976;SDS011;36992;48.200;12.418;2023-04-29T13:11:50;1.55;;;0.20;;
50976;SDS011;36992;48.200;12.418;2023-04-29T13:14:17;0.77;;;0.50;;
50976;SDS011;36992;48.200;12.418;2023-04-29T13:16:43;0.40;;;0.10;;
50976;SDS011;36992;48.200;12.418;2023-04-29T13:19:11;0.90;;;0.30;;
50976;SDS011;36992;48.200;12.418;2023-04-29T13:21:38;1.25;;;0.30;;
50976;SDS011;36992;48.200;12.418;2023-04-29T13:24:04;0.55;;;0.20;;
50976;SDS011;36992;48.200;12.418;2023-04-29T13:26:31;1.73;;;0.30;;
50976;SDS011;36992;48.200;12.418;2023-04-29T13:28:58;0.68;;;0.20;;
50976;SDS011;36992;48.200;12.418;2023-04-29T13:31:24;2.33;;;0.20;;
50976;SDS011;36992;48.200;12.418;2023-04-29T13:33:52;0.50;;;0.13;;
50976;SDS011;36992;48.200;12.418;2023-04-29T13:36:20;0.32;;;0.10;;
50976;SDS011;36992;48.200;12.418;2023-04-29T13:38:47;0.50;;;0.10;;
50976;SDS011;36992;48.200;12.418;2023-04-29T13:41:13;0.73;;;0.10;;
50976;SDS011;36992;48.200;12.418;2023-04-29T13:43:40;0.63;;;0.10;;
50976;SDS011;36992;48.200;12.418;2023-04-29T13:46:06;0.20;;;0.10;;
50976;SDS011;36992;48.200;12.418;2023-04-29T13:48:33;0.45;;;0.10;;
50976;SDS011;36992;48.200;12.418;2023-04-29T13:50:59;0.43;;;0.10;;
50976;SDS011;36992;48.200;12.418;2023-04-29T13:53:27;2.33;;;0.20;;
50976;SDS011;36992;48.200;12.418;2023-04-29T13:55:53;1.13;;;0.20;;
50976;SDS011;36992;48.200;12.418;2023-04-29T13:58:20;0.80;;;0.10;;
50976;SDS011;36992;48.200;12.418;2023-04-29T14:00:47;0.60;;;0.30;;
50976;SDS011;36992;48.200;12.418;2023-04-29T14:03:13;0.45;;;0.10;;
50976;SDS011;36992;48.200;12.418;2023-04-29T14:05:42;2.45;;;0.20;;
50976;SDS011;36992;48.200;12.418;2023-04-29T14:08:09;0.43;;;0.20;;
50976;SDS011;36992;48.200;12.418;2023-04-29T14:10:37;0.20;;;0.20;;
50976;SDS011;36992;48.200;12.418;2023-04-29T14:13:03;0.32;;;0.10;;
50976;SDS011;36992;48.200;12.418;2023-04-29T14:15:30;2.15;;;0.30;;
50976;SDS011;36992;48.200;12.418;2023-04-29T14:17:57;0.73;;;0.20;;
50976;SDS011;36992;48.200;12.418;2023-04-29T14:20:23;0.65;;;0.20;;
50976;SDS011;36992;48.200;12.418;2023-04-29T14:22:50;0.68;;;0.30;;
50976;SDS011;36992;48.200;12.418;2023-04-29T14:25:17;0.55;;;0.20;;
50976;SDS011;36992;48.200;12.418;2023-04-29T14:27:45;0.43;;;0.13;;
50976;SDS011;36992;48.200;12.418;2023-04-29T14:30:13;1.02;;;0.17;;
50976;SDS011;36992;48.200;12.418;2023-04-29T14:32:39;0.98;;;0.10;;
50976;SDS011;36992;48.200;12.418;2023-04-29T14:35:06;0.30;;;0.10;;
50976;SDS011;36992;48.200;12.418;2023-04-29T14:37:33;0.30;;;0.10;;
50976;SDS011;36992;48.200;12.418;2023-04-29T14:39:59;0.30;;;0.10;;
50976;SDS011;36992;48.200;12.418;2023-04-29T14:42:26;1.05;;;0.20;;
50976;SDS011;36992;48.200;12.418;2023-04-29T14:44:54;0.70;;;0.17;;
50976;SDS011;36992;48.200;12.418;2023-04-29T14:47:20;1.58;;;0.10;;